Time;durP1;ratioP1;P1;durP2;ratioP2;P2;SDS_P1;SDS_P2;PMS_P1;PMS_P2;Temp;Humidity;BMP_temperature;BMP_pressure;BME280_temperature;BME280_humidity;BME280_pressure;Samples;Min_cycle;Max_cycle;Signal;HPM_P1;HPM_P2
2022/01/12 00:01:43;;;;;;;60.35;23.67;;;-0.20;99.90;;;;;;5044912;28;20098;-82
2022/01/12 00:04:11;;;;;;;52.83;23.65;;;-0.20;99.90;;;;;;5043687;28;20025;-83
2022/01/12 00:06:37;;;;;;;57.95;24.15;;;-0.20;99.90;;;;;;5044823;28;20040;-82
2022/01/12 00:09:07;;;;;;;62.70;24.65;;;-0.20;99.90;;;;;;5044681;28;20116;-82
2022/01/12 00:11:35;;;;;;;58.60;23.63;;;-0.20;99.90;;;;;;5040186;28;20544;-82
2022/01/12 00:14:01;;;;;;;64.90;26.08;;;-0.20;99.90;;;;;;5044508;28;20483;-82
2022/01/12 00:16:27;;;;;;;61.05;26.05;;;-0.20;99.90;;;;;;5045977;28;20026;-82
2022/01/12 00:18:52;;;;;;;46.90;20.55;;;-0.20;99.90;;;;;;5042549;28;20049;-82
2022/01/12 00:21:18;;;;;;;54.92;22.15;;;-0.20;99.90;;;;;;5044928;28;20070;-82
2022/01/12 00:23:44;;;;;;;59.00;25.52;;;-0.30;99.90;;;;;;5045732;28;20029;-82
2022/01/12 00:26:25;;;;;;;63.20;26.13;;;-0.30;99.90;;;;;;5042165;28;20025;-82
2022/01/12 00:34:20;;;;;;;66.38;27.13;;;-0.20;99.90;;;;;;5044095;28;20036;-82
2022/01/12 00:36:46;;;;;;;58.20;23.38;;;-0.20;99.90;;;;;;5045295;28;20025;-82
2022/01/12 00:39:13;;;;;;;49.25;20.80;;;-0.30;99.90;;;;;;5043618;28;20357;-82
2022/01/12 00:41:41;;;;;;;47.58;21.73;;;-0.30;99.90;;;;;;5044191;28;20053;-82
2022/01/12 00:44:09;;;;;;;65.05;25.23;;;-0.30;99.90;;;;;;5044863;28;20045;-82
2022/01/12 00:46:36;;;;;;;51.97;23.20;;;-0.20;99.90;;;;;;5042796;28;20025;-82
2022/01/12 00:49:03;;;;;;;57.47;23.15;;;-0.30;99.90;;;;;;5045279;28;20075;-82
2022/01/12 00:51:34;;;;;;;60.55;24.13;;;-0.20;99.90;;;;;;5041924;28;20123;-82
2022/01/12 00:54:01;;;;;;;60.13;22.80;;;-0.20;99.90;;;;;;5041808;28;20025;-81
2022/01/12 00:56:27;;;;;;;51.63;22.65;;;-0.30;99.90;;;;;;5044328;28;20025;-81
2022/01/12 00:58:54;;;;;;;59.30;24.13;;;-0.30;99.90;;;;;;5043632;28;20469;-82
2022/01/12 01:01:21;;;;;;;66.38;26.95;;;-0.30;99.90;;;;;;5043403;28;20092;-82
2022/01/12 01:03:47;;;;;;;72.20;28.30;;;-0.30;99.90;;;;;;5044978;28;20057;-82
2022/01/12 01:06:13;;;;;;;60.95;26.70;;;-0.30;99.90;;;;;;5043499;28;20100;-82
2022/01/12 01:08:40;;;;;;;53.05;25.38;;;-0.30;99.90;;;;;;5044277;28;20536;-82
2022/01/12 01:11:06;;;;;;;44.38;22.38;;;-0.30;99.90;;;;;;5034096;28;20060;-82
2022/01/12 01:13:43;;;;;;;55.47;25.35;;;-0.30;99.90;;;;;;5035164;28;20053;-81
2022/01/12 01:16:24;;;;;;;59.03;26.25;;;-0.30;99.90;;;;;;5035320;28;20026;-82
2022/01/12 01:27:03;;;;;;;42.75;20.08;;;-0.30;99.90;;;;;;5034996;28;20037;-82
2022/01/12 01:29:29;;;;;;;41.70;18.60;;;-0.30;99.90;;;;;;5034804;28;20032;-82
2022/01/12 01:31:55;;;;;;;40.10;16.88;;;-0.40;99.90;;;;;;5035234;28;20033;-82
2022/01/12 01:34:21;;;;;;;41.17;18.88;;;-0.40;99.90;;;;;;5034714;28;20036;-82
2022/01/12 01:36:51;;;;;;;49.40;21.35;;;-0.40;99.90;;;;;;5033644;28;20480;-82
2022/01/12 01:39:20;;;;;;;45.72;20.85;;;-0.40;99.90;;;;;;5034798;28;20036;-82
2022/01/12 01:41:52;;;;;;;44.92;19.67;;;-0.50;99.90;;;;;;5034594;28;20025;-82
2022/01/12 01:54:46;;;;;;;60.53;22.58;;;-0.50;99.90;;;;;;5034413;28;20033;-81
2022/01/12 01:57:13;;;;;;;59.08;22.55;;;-0.60;99.90;;;;;;5034080;28;20030;-81
2022/01/12 01:59:39;;;;;;;57.75;22.30;;;-0.60;99.90;;;;;;5034417;28;20032;-82
2022/01/12 02:02:06;;;;;;;48.88;20.92;;;-0.60;99.90;;;;;;5034132;28;20108;-82
2022/01/12 02:04:32;;;;;;;49.05;20.02;;;-0.60;99.90;;;;;;5032848;28;20387;-82
2022/01/12 02:06:58;;;;;;;47.33;20.00;;;-0.50;99.90;;;;;;5034630;28;20504;-81
2022/01/12 02:09:25;;;;;;;42.70;20.38;;;-0.50;99.90;;;;;;5032811;28;20025;-81
2022/01/12 02:11:52;;;;;;;32.13;17.25;;;-0.50;99.90;;;;;;5033111;28;20026;-82
2022/01/12 02:14:19;;;;;;;38.45;17.50;;;-0.60;99.90;;;;;;5033965;28;20072;-81
2022/01/12 02:16:56;;;;;;;46.22;19.67;;;-0.50;99.90;;;;;;5033673;28;20028;-82
2022/01/12 02:36:30;;;;;;;43.25;19.77;;;-0.60;99.90;;;;;;5012239;28;20037;-81
2022/01/12 02:41:40;;;;;;;58.33;26.88;;;-0.60;99.90;;;;;;5011812;28;20088;-82
2022/01/12 02:55:15;;;;;;;49.70;21.55;;;-0.70;99.90;;;;;;5011890;28;20068;-82
2022/01/12 02:57:40;;;;;;;39.33;19.30;;;-0.80;99.90;;;;;;5013127;28;20026;-82
2022/01/12 03:00:11;;;;;;;45.65;18.02;;;-0.80;99.90;;;;;;5031877;28;20120;-81
2022/01/12 03:02:41;;;;;;;42.05;19.00;;;-0.80;99.90;;;;;;5033599;28;20032;-81
2022/01/12 03:07:39;;;;;;;40.83;18.10;;;-0.90;99.90;;;;;;5033445;28;20069;-81
2022/01/12 03:10:07;;;;;;;33.40;14.23;;;-0.90;99.90;;;;;;5033403;28;20112;-81
2022/01/12 03:12:36;;;;;;;25.75;12.38;;;-0.90;99.90;;;;;;5032116;28;20025;-81
2022/01/12 03:15:02;;;;;;;27.92;14.32;;;-1.00;99.90;;;;;;5033552;28;20473;-81
2022/01/12 03:17:28;;;;;;;21.20;10.35;;;-1.00;99.90;;;;;;5031833;28;20109;-81
2022/01/12 03:19:54;;;;;;;21.75;10.70;;;-1.00;99.90;;;;;;5032018;28;20120;-81
2022/01/12 03:22:20;;;;;;;25.30;11.00;;;-1.00;99.90;;;;;;5033600;28;20056;-81
2022/01/12 03:24:45;;;;;;;22.30;10.95;;;-1.00;99.90;;;;;;5033320;28;20122;-81
2022/01/12 03:27:14;;;;;;;17.40;9.50;;;-1.10;99.90;;;;;;5031802;28;20037;-81
2022/01/12 03:29:42;;;;;;;19.85;9.75;;;-1.10;99.90;;;;;;5032146;28;20486;-81
2022/01/12 03:32:11;;;;;;;19.55;9.75;;;-1.10;99.90;;;;;;5032026;28;20058;-81
2022/01/12 03:34:41;;;;;;;17.83;8.20;;;-1.20;99.90;;;;;;5033357;28;20037;-81
2022/01/12 03:37:28;;;;;;;22.55;10.85;;;-1.20;99.90;;;;;;5033364;28;20034;-80
2022/01/12 03:39:54;;;;;;;28.23;12.00;;;-1.20;99.90;;;;;;5033086;28;20376;-80
2022/01/12 03:42:20;;;;;;;28.35;12.15;;;-1.20;99.90;;;;;;5032908;28;20046;-80
2022/01/12 03:44:46;;;;;;;31.13;12.90;;;-1.20;99.90;;;;;;5033298;28;20034;-80
2022/01/12 03:47:12;;;;;;;23.52;11.50;;;-1.20;99.90;;;;;;5035118;28;20472;-80
2022/01/12 03:49:37;;;;;;;33.08;13.40;;;-1.30;99.90;;;;;;5036403;28;20030;-80
2022/01/12 03:52:04;;;;;;;34.47;14.27;;;-1.40;99.90;;;;;;5035505;28;20029;-80
2022/01/12 03:54:29;;;;;;;28.55;12.98;;;-1.40;99.90;;;;;;5036378;28;20381;-80
2022/01/12 03:56:58;;;;;;;32.50;13.27;;;-1.40;99.90;;;;;;5036640;28;20112;-80
2022/01/12 03:59:24;;;;;;;30.27;13.23;;;-1.40;99.90;;;;;;5036943;28;20028;-80
2022/01/12 04:01:50;;;;;;;34.15;14.50;;;-1.40;99.90;;;;;;5036501;28;20025;-80
2022/01/12 04:04:24;;;;;;;26.35;12.43;;;-1.40;99.90;;;;;;5036648;28;20044;-80
2022/01/12 04:09:34;;;;;;;27.15;11.55;;;-1.40;99.90;;;;;;5036129;28;20033;-80
2022/01/12 04:12:00;;;;;;;33.38;12.38;;;-1.40;99.90;;;;;;5036407;28;20026;-80
2022/01/12 04:14:26;;;;;;;31.00;12.07;;;-1.40;99.90;;;;;;5036482;28;20090;-80
2022/01/12 04:16:51;;;;;;;25.75;10.55;;;-1.40;99.90;;;;;;5036263;28;20025;-80
2022/01/12 04:19:17;;;;;;;36.92;14.07;;;-1.50;99.90;;;;;;5036574;28;20400;-80
2022/01/12 04:21:47;;;;;;;24.48;11.18;;;-1.50;99.90;;;;;;5036058;28;20033;-80
2022/01/12 04:24:13;;;;;;;29.63;13.00;;;-1.50;99.90;;;;;;5035830;28;20033;-80
2022/01/12 04:26:39;;;;;;;31.38;12.52;;;-1.50;99.90;;;;;;5036163;28;20026;-80
2022/01/12 04:29:07;;;;;;;27.33;11.40;;;-1.50;99.90;;;;;;5036294;28;20033;-80
2022/01/12 04:31:34;;;;;;;25.48;10.82;;;-1.50;99.90;;;;;;5034666;28;20036;-79
2022/01/12 04:34:00;;;;;;;30.50;13.77;;;-1.50;99.90;;;;;;5036028;28;20025;-79
2022/01/12 04:36:26;;;;;;;27.75;13.70;;;-1.60;99.90;;;;;;5036099;28;20051;-80
2022/01/12 04:38:52;;;;;;;38.13;16.90;;;-1.50;99.90;;;;;;5035857;28;20033;-80
2022/01/12 04:41:18;;;;;;;31.65;14.02;;;-1.50;99.90;;;;;;5035612;28;20083;-80
2022/01/12 04:43:44;;;;;;;26.92;12.20;;;-1.60;99.90;;;;;;5035292;28;20053;-80
2022/01/12 04:51:10;;;;;;;47.47;20.17;;;-1.60;99.90;;;;;;5035615;28;20369;-79
2022/01/12 04:53:36;;;;;;;59.85;24.83;;;-1.60;99.90;;;;;;5035741;28;20457;-79
2022/01/12 04:56:03;;;;;;;52.60;24.10;;;-1.60;99.90;;;;;;5035656;28;20072;-79
2022/01/12 04:58:30;;;;;;;41.85;18.23;;;-1.60;99.90;;;;;;5035189;28;20022;-80
2022/01/12 05:00:57;;;;;;;38.20;16.70;;;-1.60;99.90;;;;;;5037971;28;20022;-80
2022/01/12 05:09:08;;;;;;;30.17;14.25;;;-1.60;99.90;;;;;;5055133;28;20429;-80
2022/01/12 05:14:19;;;;;;;20.30;8.80;;;-1.70;99.90;;;;;;5035214;28;20044;-79
2022/01/12 05:16:45;;;;;;;25.63;11.23;;;-1.70;99.90;;;;;;5044101;28;20037;-79
2022/01/12 05:19:11;;;;;;;20.73;11.60;;;-1.70;99.90;;;;;;5054677;28;20521;-80
2022/01/12 05:21:37;;;;;;;25.75;12.98;;;-1.70;99.90;;;;;;5051844;28;20430;-79
2022/01/12 05:24:06;;;;;;;29.25;14.52;;;-1.70;99.90;;;;;;5053486;28;20399;-77
2022/01/12 05:26:33;;;;;;;23.00;11.25;;;-1.70;99.90;;;;;;5054884;28;20064;-79
2022/01/12 05:28:59;;;;;;;23.48;11.23;;;-1.70;99.90;;;;;;5053742;28;20483;-80
2022/01/12 05:31:24;;;;;;;34.78;14.98;;;-1.70;99.90;;;;;;5054594;28;20025;-80
2022/01/12 05:33:51;;;;;;;30.17;12.93;;;-1.70;99.90;;;;;;5053332;28;20025;-80
2022/01/12 05:36:18;;;;;;;30.77;13.52;;;-1.70;99.90;;;;;;5053505;28;20025;-80
2022/01/12 05:38:45;;;;;;;25.45;12.07;;;-1.70;99.90;;;;;;5054812;28;20051;-80
2022/01/12 05:41:11;;;;;;;20.83;10.13;;;-1.80;99.90;;;;;;5041679;28;20037;-79
2022/01/12 05:43:38;;;;;;;30.05;13.00;;;-1.80;99.90;;;;;;5034742;28;20062;-79
2022/01/12 05:46:10;;;;;;;28.13;12.32;;;-1.80;99.90;;;;;;5042280;28;20376;-79
2022/01/12 05:51:30;;;;;;;38.17;15.20;;;-1.80;99.90;;;;;;5054517;28;20074;-79
2022/01/12 05:53:56;;;;;;;51.03;21.60;;;-1.80;99.90;;;;;;5054323;28;20029;-79
2022/01/12 05:56:22;;;;;;;59.70;20.10;;;-1.80;99.90;;;;;;5054189;28;20460;-79
2022/01/12 05:58:49;;;;;;;49.38;16.48;;;-1.80;99.90;;;;;;5054067;28;20025;-79
2022/01/12 06:01:16;;;;;;;43.58;14.90;;;-1.80;99.90;;;;;;5054195;28;20021;-79
2022/01/12 06:03:42;;;;;;;42.58;15.68;;;-1.80;99.90;;;;;;5054041;28;20036;-79
2022/01/12 06:06:08;;;;;;;41.83;15.30;;;-1.80;99.90;;;;;;5054226;28;20025;-79
2022/01/12 06:08:33;;;;;;;46.10;14.90;;;-1.90;99.90;;;;;;5052495;28;20032;-79
2022/01/12 06:10:59;;;;;;;39.17;14.73;;;-1.80;99.90;;;;;;5053563;28;20392;-79
2022/01/12 06:13:25;;;;;;;49.53;17.95;;;-1.90;99.90;;;;;;5053611;28;20036;-79
2022/01/12 06:15:51;;;;;;;89.18;30.20;;;-1.90;99.90;;;;;;5052477;28;20024;-79
2022/01/12 06:18:17;;;;;;;136.02;32.80;;;-1.90;99.90;;;;;;5052748;28;20099;-79
2022/01/12 06:20:42;;;;;;;122.30;34.05;;;-1.80;99.90;;;;;;5052184;28;20025;-79
2022/01/12 06:23:08;;;;;;;92.13;32.90;;;-1.80;99.90;;;;;;5052884;28;20468;-79
2022/01/12 06:25:34;;;;;;;108.00;38.83;;;-1.80;99.90;;;;;;5053272;28;20025;-79
2022/01/12 06:28:21;;;;;;;125.07;45.13;;;-1.80;99.90;;;;;;5053861;28;20467;-79
2022/01/12 06:33:31;;;;;;;195.18;68.45;;;-1.80;99.90;;;;;;5053550;28;20036;-78
2022/01/12 06:35:56;;;;;;;184.32;56.50;;;-1.80;99.90;;;;;;5053667;28;20029;-78
2022/01/12 06:38:22;;;;;;;137.32;39.03;;;-1.70;99.90;;;;;;5053538;28;20025;-78
2022/01/12 06:40:48;;;;;;;133.80;39.17;;;-1.70;99.90;;;;;;5053376;28;20048;-78
2022/01/12 06:43:14;;;;;;;283.48;84.75;;;-1.70;99.90;;;;;;5053290;28;20504;-78
2022/01/12 06:45:40;;;;;;;222.95;76.18;;;-1.70;99.90;;;;;;5053728;28;20106;-79
2022/01/12 06:48:06;;;;;;;205.13;73.22;;;-1.60;99.90;;;;;;5053366;28;20032;-79
2022/01/12 06:50:32;;;;;;;80.57;34.17;;;-1.60;99.90;;;;;;5053201;28;20401;-78
2022/01/12 06:52:58;;;;;;;90.90;32.80;;;-1.60;99.90;;;;;;5053316;28;20396;-79
2022/01/12 06:55:25;;;;;;;256.15;78.47;;;-1.60;99.90;;;;;;5053381;28;20025;-79
2022/01/12 06:57:51;;;;;;;362.77;107.05;;;-1.50;99.90;;;;;;5053392;28;20082;-78
2022/01/12 07:00:17;;;;;;;246.05;81.95;;;-1.50;99.90;;;;;;5053176;28;20029;-79
2022/01/12 07:02:43;;;;;;;190.70;68.07;;;-1.60;99.90;;;;;;5053623;28;20029;-79
2022/01/12 07:05:08;;;;;;;148.55;60.10;;;-1.60;99.90;;;;;;5053257;28;20041;-79
2022/01/12 07:07:34;;;;;;;93.20;41.17;;;-1.50;99.90;;;;;;5053504;28;20083;-78
2022/01/12 07:10:00;;;;;;;105.40;43.83;;;-1.60;99.90;;;;;;5053242;28;20025;-79
2022/01/12 07:12:26;;;;;;;196.35;72.50;;;-1.60;99.90;;;;;;5052999;28;20086;-78
2022/01/12 07:14:52;;;;;;;121.20;50.97;;;-1.60;99.90;;;;;;5053668;28;20025;-78
2022/01/12 07:17:18;;;;;;;131.80;52.40;;;-1.50;99.90;;;;;;5053269;28;20029;-78
2022/01/12 07:19:44;;;;;;;171.75;63.97;;;-1.50;99.90;;;;;;5052442;28;20040;-78
2022/01/12 07:22:09;;;;;;;124.55;49.40;;;-1.50;99.90;;;;;;5055581;28;20591;-77
2022/01/12 07:24:35;;;;;;;124.10;51.88;;;-1.50;99.90;;;;;;5057180;28;20040;-77
2022/01/12 07:27:01;;;;;;;98.20;41.10;;;-1.40;99.90;;;;;;5057094;28;20033;-77
2022/01/12 07:29:27;;;;;;;85.75;36.50;;;-1.50;99.90;;;;;;5057175;28;20452;-77
2022/01/12 07:31:53;;;;;;;274.55;87.55;;;-1.50;99.90;;;;;;5056703;28;20021;-77
2022/01/12 07:34:19;;;;;;;152.15;51.63;;;-1.40;99.90;;;;;;5057181;28;20040;-77
2022/01/12 07:36:44;;;;;;;179.02;51.30;;;-1.50;99.90;;;;;;5057040;28;20021;-77
2022/01/12 07:39:10;;;;;;;218.30;63.22;;;-1.60;99.90;;;;;;5056923;28;20033;-77
2022/01/12 07:41:37;;;;;;;176.18;57.67;;;-1.50;99.90;;;;;;5056745;28;20064;-77
2022/01/12 07:44:03;;;;;;;157.63;43.72;;;-1.50;99.90;;;;;;5056970;28;20041;-77
2022/01/12 07:46:29;;;;;;;167.05;48.58;;;-1.60;99.90;;;;;;5056734;28;20021;-77
2022/01/12 07:48:55;;;;;;;238.15;78.70;;;-1.50;99.90;;;;;;5056866;28;20422;-77
2022/01/12 07:51:21;;;;;;;241.10;76.82;;;-1.50;99.90;;;;;;5056626;28;20025;-77
2022/01/12 07:53:47;;;;;;;147.77;55.50;;;-1.40;99.90;;;;;;5056342;28;20067;-77
2022/01/12 07:56:13;;;;;;;121.30;47.05;;;-1.50;99.90;;;;;;5056457;28;20467;-77
2022/01/12 07:58:39;;;;;;;143.30;50.00;;;-1.50;99.90;;;;;;5056712;28;20096;-77
2022/01/12 08:01:05;;;;;;;119.25;49.25;;;-1.50;99.90;;;;;;5056088;28;20063;-77
2022/01/12 08:03:30;;;;;;;98.55;41.83;;;-1.60;99.90;;;;;;5055153;28;20057;-76
2022/01/12 08:05:59;;;;;;;197.25;74.95;;;-1.60;99.90;;;;;;5056311;28;20025;-77
2022/01/12 08:08:25;;;;;;;152.30;57.20;;;-1.70;99.90;;;;;;5056328;28;20108;-77
2022/01/12 08:10:51;;;;;;;101.05;38.10;;;-1.80;99.90;;;;;;5056661;28;20115;-76
2022/01/12 08:13:16;;;;;;;292.90;89.38;;;-1.90;99.90;;;;;;5056366;28;20029;-76
2022/01/12 08:15:43;;;;;;;233.10;72.95;;;-1.90;99.90;;;;;;5056637;28;20024;-77
2022/01/12 08:18:09;;;;;;;259.80;80.43;;;-1.90;99.90;;;;;;5056225;28;20484;-77
2022/01/12 08:20:35;;;;;;;317.08;100.60;;;-1.90;99.90;;;;;;5056133;28;20025;-76
2022/01/12 08:23:00;;;;;;;148.98;52.63;;;-1.60;99.90;;;;;;5056047;28;20028;-77
2022/01/12 08:25:26;;;;;;;115.60;43.63;;;-1.30;99.90;;;;;;5055366;28;20047;-76
2022/01/12 08:27:52;;;;;;;132.30;51.15;;;-1.00;99.90;;;;;;5054738;28;20039;-76
2022/01/12 08:30:21;;;;;;;99.80;39.83;;;-0.90;99.90;;;;;;5056198;28;20025;-76
2022/01/12 08:32:50;;;;;;;145.20;54.13;;;-0.80;99.90;;;;;;5055660;28;20021;-76
2022/01/12 08:35:17;;;;;;;98.63;43.50;;;-0.70;99.90;;;;;;5055535;28;20454;-76
2022/01/12 08:37:44;;;;;;;92.90;38.55;;;-0.60;99.90;;;;;;5056143;28;20077;-76
2022/01/12 08:40:12;;;;;;;95.38;39.47;;;-0.60;99.90;;;;;;5056222;28;20029;-77
2022/01/12 08:42:38;;;;;;;71.03;29.88;;;-0.60;99.90;;;;;;5055261;28;20049;-76
2022/01/12 08:45:05;;;;;;;73.43;32.70;;;-0.70;99.90;;;;;;5055567;28;20520;-77
2022/01/12 08:47:31;;;;;;;67.35;28.23;;;-0.60;99.90;;;;;;5055955;28;20032;-77
2022/01/12 08:49:57;;;;;;;58.08;26.00;;;-0.60;99.90;;;;;;5055145;28;20379;-77
2022/01/12 08:52:24;;;;;;;57.38;25.48;;;-0.70;99.90;;;;;;5055830;28;20108;-77
2022/01/12 08:54:51;;;;;;;72.80;31.08;;;-0.50;99.90;;;;;;5051222;28;20072;-77
2022/01/12 08:57:17;;;;;;;76.78;32.22;;;-0.40;99.90;;;;;;5041662;28;20024;-77
2022/01/12 08:59:44;;;;;;;65.25;30.38;;;-0.40;99.90;;;;;;5045070;28;20017;-77
2022/01/12 09:02:13;;;;;;;88.00;36.65;;;-0.30;99.90;;;;;;5040538;28;20025;-77
2022/01/12 09:04:39;;;;;;;115.50;46.42;;;-0.30;99.90;;;;;;5035207;28;20025;-77
2022/01/12 09:07:05;;;;;;;219.55;94.50;;;-0.20;99.90;;;;;;5037755;28;20052;-78
2022/01/12 09:09:31;;;;;;;103.82;49.88;;;-0.10;99.90;;;;;;5045678;28;20059;-77
2022/01/12 09:11:57;;;;;;;126.78;55.78;;;-0.10;99.90;;;;;;5044121;28;20083;-78
2022/01/12 09:14:23;;;;;;;115.00;49.25;;;-0.20;99.90;;;;;;5044462;28;20029;-78
2022/01/12 09:16:54;;;;;;;124.88;49.00;;;-0.20;99.90;;;;;;5043125;28;20032;-77
2022/01/12 09:19:24;;;;;;;135.80;59.55;;;-0.20;99.90;;;;;;5045489;28;20502;-77
2022/01/12 09:21:50;;;;;;;192.27;89.90;;;0.10;99.90;;;;;;5044956;28;20018;-77
2022/01/12 09:24:17;;;;;;;153.40;74.63;;;0.00;99.90;;;;;;5035582;28;20068;-77
2022/01/12 09:26:43;;;;;;;132.90;68.38;;;0.00;99.90;;;;;;5035315;28;20115;-77
2022/01/12 09:29:09;;;;;;;129.80;66.85;;;0.10;99.90;;;;;;5035046;28;20048;-77
2022/01/12 09:31:36;;;;;;;115.03;58.90;;;0.00;99.90;;;;;;5034841;28;20480;-77
2022/01/12 09:34:03;;;;;;;106.25;58.40;;;0.20;99.90;;;;;;5034598;28;20021;-77
2022/01/12 09:36:29;;;;;;;70.55;34.47;;;0.10;99.90;;;;;;5034735;28;20024;-78
2022/01/12 09:38:55;;;;;;;85.32;40.80;;;0.20;99.90;;;;;;5034606;28;20032;-79
2022/01/12 09:41:24;;;;;;;65.20;32.72;;;0.40;99.90;;;;;;5034828;28;20380;-78
2022/01/12 09:43:51;;;;;;;60.05;27.92;;;0.50;99.90;;;;;;5033972;28;20427;-78
2022/01/12 09:46:18;;;;;;;54.92;25.52;;;0.60;99.90;;;;;;5034564;28;20033;-79
2022/01/12 09:48:45;;;;;;;60.63;27.38;;;1.10;99.90;;;;;;5033379;28;20032;-78
2022/01/12 09:51:11;;;;;;;63.72;30.92;;;1.50;99.90;;;;;;5033145;28;20022;-78
2022/01/12 09:53:38;;;;;;;52.35;28.17;;;1.70;99.90;;;;;;5034898;28;20041;-79
2022/01/12 09:56:20;;;;;;;65.00;36.60;;;1.70;99.90;;;;;;5033253;28;20483;-78
2022/01/12 09:58:51;;;;;;;59.95;28.65;;;2.00;99.90;;;;;;5034113;28;20036;-79
2022/01/12 10:01:36;;;;;;;75.50;27.97;;;2.30;99.90;;;;;;5034737;28;20026;-78
2022/01/12 10:04:29;;;;;;;57.92;25.95;;;2.40;99.90;;;;;;5034107;28;20492;-78
2022/01/12 10:07:04;;;;;;;55.10;26.15;;;2.80;99.90;;;;;;5032992;28;20396;-79
2022/01/12 10:09:43;;;;;;;58.33;26.65;;;3.10;99.90;;;;;;5034210;28;20076;-78
2022/01/12 10:12:21;;;;;;;60.20;27.15;;;3.00;99.30;;;;;;5034364;28;20029;-78
2022/01/12 10:14:59;;;;;;;57.70;26.60;;;2.90;99.90;;;;;;5034202;28;20037;-79
2022/01/12 10:17:39;;;;;;;59.55;26.13;;;2.80;99.90;;;;;;5034419;28;20033;-79
2022/01/12 10:20:21;;;;;;;61.65;28.73;;;2.80;98.60;;;;;;5034053;28;20057;-78
2022/01/12 10:23:10;;;;;;;54.40;24.30;;;2.50;98.00;;;;;;5034236;28;20076;-79
2022/01/12 10:25:37;;;;;;;58.03;29.73;;;2.70;98.70;;;;;;5034191;28;20045;-78
2022/01/12 10:28:15;;;;;;;42.85;22.02;;;2.90;99.90;;;;;;5033160;28;20052;-78
2022/01/12 10:30:52;;;;;;;55.15;24.75;;;2.70;98.30;;;;;;5033230;28;20032;-78
2022/01/12 10:33:18;;;;;;;57.08;27.08;;;3.10;98.90;;;;;;5033179;28;20112;-79
2022/01/12 10:35:44;;;;;;;64.65;28.42;;;3.30;97.60;;;;;;5033712;28;20067;-78
2022/01/12 10:38:17;;;;;;;47.85;24.02;;;3.60;96.00;;;;;;5033438;28;20028;-78
2022/01/12 10:40:50;;;;;;;51.40;24.60;;;3.30;95.60;;;;;;5033910;28;20030;-79
2022/01/12 10:43:45;;;;;;;59.42;27.77;;;3.40;95.50;;;;;;5033554;28;20060;-79
2022/01/12 10:46:17;;;;;;;54.88;28.00;;;3.80;95.10;;;;;;5032675;28;20527;-79
2022/01/12 10:48:43;;;;;;;66.88;29.83;;;4.30;94.30;;;;;;5033623;28;20025;-79
2022/01/12 10:51:10;;;;;;;67.93;33.95;;;4.10;93.00;;;;;;5033439;28;20029;-79
2022/01/12 10:53:37;;;;;;;58.88;28.77;;;4.80;93.50;;;;;;5033722;28;20099;-79
2022/01/12 10:56:08;;;;;;;64.63;30.08;;;4.50;92.00;;;;;;5033604;28;20025;-78
2022/01/12 10:58:38;;;;;;;76.03;36.88;;;4.60;90.70;;;;;;5033717;28;20483;-78
2022/01/12 11:01:04;;;;;;;73.95;32.03;;;4.80;91.00;;;;;;5033438;28;20041;-78
2022/01/12 11:03:31;;;;;;;60.20;30.00;;;4.80;90.00;;;;;;5033388;28;20033;-78
2022/01/12 11:05:58;;;;;;;104.55;45.08;;;4.60;91.00;;;;;;5033253;28;20033;-78
2022/01/12 11:08:25;;;;;;;117.38;53.70;;;4.70;91.60;;;;;;5032767;28;20060;-78
2022/01/12 11:10:55;;;;;;;79.45;37.28;;;4.80;91.00;;;;;;5032933;28;20026;-78
2022/01/12 11:13:22;;;;;;;108.00;51.05;;;4.40;90.20;;;;;;5033574;28;20025;-78
2022/01/12 11:15:49;;;;;;;191.48;78.20;;;3.50;91.30;;;;;;5033337;28;20032;-78
2022/01/12 11:18:17;;;;;;;88.38;41.90;;;2.60;93.40;;;;;;5033599;28;20152;-78
2022/01/12 11:20:44;;;;;;;80.90;39.75;;;2.50;94.60;;;;;;5033640;28;20369;-78
2022/01/12 11:23:16;;;;;;;91.75;41.63;;;2.40;97.40;;;;;;5033300;28;20029;-77
2022/01/12 11:25:52;;;;;;;;;;;3.20;97.30;;;;;;5033549;28;20026;-78
2022/01/12 11:28:36;;;;;;;119.75;49.78;;;3.30;96.20;;;;;;5033156;28;20265;-78
2022/01/12 11:31:04;;;;;;;69.75;33.33;;;3.60;95.60;;;;;;5033302;28;20167;-78
2022/01/12 11:33:30;;;;;;;85.90;39.13;;;3.40;95.70;;;;;;5033614;28;20033;-77
2022/01/12 11:35:59;;;;;;;97.85;45.10;;;3.70;95.10;;;;;;5033744;28;20350;-77
2022/01/12 11:38:34;;;;;;;78.75;38.03;;;3.70;94.70;;;;;;5032924;28;20044;-78
2022/01/12 11:41:39;;;;;;;85.88;37.67;;;3.80;95.30;;;;;;5033345;28;20026;-77
2022/01/12 11:44:13;;;;;;;90.07;42.00;;;3.90;94.50;;;;;;5010818;28;20061;-78
2022/01/12 11:46:56;;;;;;;72.00;34.42;;;4.30;94.70;;;;;;5011327;28;20427;-78
2022/01/12 11:49:30;;;;;;;111.45;54.45;;;4.30;92.80;;;;;;5011221;28;20034;-78
2022/01/12 11:51:58;;;;;;;66.13;32.50;;;4.10;93.70;;;;;;5011138;28;20129;-78
2022/01/12 11:54:39;;;;;;;68.20;36.25;;;4.50;93.80;;;;;;5010995;28;20030;-78
2022/01/12 11:57:11;;;;;;;72.90;36.23;;;3.70;93.40;;;;;;4994795;28;20058;-78
2022/01/12 12:00:04;;;;;;;68.68;34.25;;;3.70;94.40;;;;;;5011201;28;20129;-78
2022/01/12 12:02:32;;;;;;;;;;;3.30;95.20;;;;;;4995036;28;20062;-78
2022/01/12 12:05:00;;;;;;;70.78;33.17;;;3.40;96.60;;;;;;5010776;28;20391;-78
2022/01/12 12:07:26;;;;;;;63.38;31.83;;;3.10;97.60;;;;;;5011873;28;20037;-78
2022/01/12 12:09:57;;;;;;;77.50;38.03;;;2.70;98.50;;;;;;4998052;28;20030;-78
2022/01/12 12:12:30;;;;;;;60.90;28.92;;;2.70;99.90;;;;;;5014104;28;20054;-78
2022/01/12 12:14:58;;;;;;;66.60;32.72;;;2.10;99.90;;;;;;5026549;28;20045;-78
2022/01/12 12:17:29;;;;;;;73.30;35.58;;;1.90;99.90;;;;;;5035512;28;20040;-78
2022/01/12 12:19:56;;;;;;;75.32;35.45;;;1.70;99.90;;;;;;5036411;28;20052;-77
2022/01/12 12:22:26;;;;;;;74.93;34.70;;;1.50;99.90;;;;;;5036156;28;20083;-77
2022/01/12 12:25:06;;;;;;;81.38;37.83;;;1.40;99.90;;;;;;5036544;28;20128;-77
2022/01/12 12:27:34;;;;;;;58.85;27.77;;;1.40;99.90;;;;;;5036384;28;20021;-77
2022/01/12 12:30:01;;;;;;;60.95;26.27;;;1.00;99.90;;;;;;5036155;28;20108;-77
2022/01/12 12:32:42;;;;;;;62.38;30.08;;;0.90;99.90;;;;;;5035986;28;20025;-77
2022/01/12 12:35:29;;;;;;;79.35;35.53;;;0.90;99.90;;;;;;5036021;28;20026;-77
2022/01/12 12:38:10;;;;;;;71.72;32.10;;;1.00;99.90;;;;;;5036128;28;20057;-77
2022/01/12 12:40:38;;;;;;;65.90;29.08;;;0.90;99.90;;;;;;5035934;28;20051;-77
2022/01/12 12:43:19;;;;;;;70.95;31.92;;;0.80;99.90;;;;;;5035559;28;20049;-77
2022/01/12 12:45:48;;;;;;;87.13;38.88;;;0.60;99.90;;;;;;5035785;28;20084;-77
2022/01/12 12:48:16;;;;;;;98.07;41.92;;;0.60;99.90;;;;;;5035727;28;20448;-77
2022/01/12 12:50:42;;;;;;;130.00;55.92;;;0.60;99.90;;;;;;5035761;28;20021;-77
2022/01/12 12:53:09;;;;;;;76.28;35.35;;;0.50;99.90;;;;;;5036101;28;20093;-77
2022/01/12 12:55:43;;;;;;;97.85;37.72;;;0.40;99.90;;;;;;5035312;28;20030;-77
2022/01/12 12:58:10;;;;;;;172.05;59.40;;;0.40;99.90;;;;;;5035662;28;20124;-76
2022/01/12 13:00:37;;;;;;;162.20;56.33;;;0.40;99.90;;;;;;5035224;28;20041;-77
2022/01/12 13:03:04;;;;;;;219.23;73.75;;;0.10;99.90;;;;;;5035485;28;20021;-77
2022/01/12 13:05:32;;;;;;;245.85;81.72;;;0.20;99.90;;;;;;5035149;28;20469;-77
2022/01/12 13:07:58;;;;;;;121.10;48.10;;;0.30;99.90;;;;;;5035714;28;20091;-77
2022/01/12 13:10:30;;;;;;;84.72;33.92;;;0.40;99.90;;;;;;5035508;28;20029;-77
2022/01/12 13:12:59;;;;;;;141.70;49.35;;;0.40;99.90;;;;;;5035402;28;20060;-77
2022/01/12 13:15:30;;;;;;;144.98;53.80;;;0.40;99.90;;;;;;5035257;28;20087;-77
2022/01/12 13:18:03;;;;;;;108.15;44.08;;;0.40;99.90;;;;;;5034864;28;20108;-77
2022/01/12 13:23:31;;;;;;;79.53;30.75;;;0.30;99.90;;;;;;5034976;28;20040;-77
2022/01/12 13:26:01;;;;;;;96.93;38.65;;;0.20;99.90;;;;;;5035114;28;20028;-77
2022/01/12 13:28:28;;;;;;;92.30;36.95;;;0.30;99.90;;;;;;5035017;28;20113;-76
2022/01/12 13:30:59;;;;;;;97.03;39.40;;;0.20;99.90;;;;;;5035523;28;20524;-77
2022/01/12 13:33:34;;;;;;;69.03;30.75;;;0.20;99.90;;;;;;5034992;28;20110;-77
2022/01/12 13:36:16;;;;;;;86.63;35.75;;;0.20;99.90;;;;;;5034822;28;20092;-76
2022/01/12 13:38:46;;;;;;;67.07;29.52;;;0.20;99.90;;;;;;5034894;28;20022;-76
2022/01/12 13:41:15;;;;;;;95.55;42.53;;;0.20;99.90;;;;;;5033712;28;20124;-77
2022/01/12 13:43:43;;;;;;;63.25;28.65;;;0.20;99.90;;;;;;5033091;28;20045;-76
2022/01/12 13:46:14;;;;;;;60.15;28.02;;;0.30;99.90;;;;;;5046049;28;20036;-76
2022/01/12 13:49:02;;;;;;;64.53;27.73;;;0.30;99.90;;;;;;5054587;28;20025;-77
2022/01/12 13:51:36;;;;;;;55.53;25.92;;;0.20;99.90;;;;;;5054840;28;20083;-76
2022/01/12 13:54:14;;;;;;;65.25;29.63;;;0.20;99.90;;;;;;5054507;28;20032;-77
2022/01/12 13:56:45;;;;;;;78.55;32.05;;;0.20;99.90;;;;;;5054093;28;20424;-76
2022/01/12 13:59:13;;;;;;;78.43;33.40;;;0.30;99.90;;;;;;5054556;28;20021;-77